createdAt,value
2022-12-26T00:00:16.340Z,43.70
2022-12-26T00:03:03.803Z,45.30
2022-12-26T00:05:31.151Z,42.50
2022-12-26T00:07:58.300Z,44.60
2022-12-26T00:10:25.207Z,46.70
2022-12-26T00:12:52.397Z,46.60
2022-12-26T00:15:19.663Z,44.10
2022-12-26T00:17:47.007Z,42.60
2022-12-26T00:20:14.517Z,47.60
2022-12-26T00:22:41.613Z,45.10
2022-12-26T00:25:10.166Z,46.10
2022-12-26T00:27:37.254Z,47.80
2022-12-26T00:30:04.795Z,43.20
2022-12-26T00:32:32.263Z,46.30
2022-12-26T00:34:59.182Z,48.90
2022-12-26T00:37:26.356Z,47.30
2022-12-26T00:39:53.524Z,42.20
2022-12-26T00:42:20.664Z,44.70
2022-12-26T00:44:47.714Z,48.50
2022-12-26T00:47:14.891Z,41.70
2022-12-26T00:50:13.096Z,44.70
2022-12-26T00:52:29.329Z,42.60
2022-12-26T00:54:56.373Z,45.70
2022-12-26T00:57:23.546Z,44.30
2022-12-26T00:59:51.188Z,43.20
2022-12-26T01:02:35.936Z,40.80
2022-12-26T01:05:03.921Z,42.10
2022-12-26T01:07:33.950Z,46.80
2022-12-26T01:10:00.991Z,43.10
2022-12-26T01:12:28.755Z,45.90
2022-12-26T01:14:58.096Z,42.80
2022-12-26T01:17:25.621Z,43.10
2022-12-26T01:19:53.068Z,38.90
2022-12-26T01:22:21.043Z,40.80
2022-12-26T01:24:49.213Z,45.30
2022-12-26T01:27:16.464Z,43.50
2022-12-26T01:29:43.717Z,42.30
2022-12-26T01:32:10.812Z,38.70
2022-12-26T01:34:38.431Z,42.40
2022-12-26T01:37:05.789Z,41.60
2022-12-26T01:39:33.255Z,40.90
2022-12-26T01:42:00.615Z,39.70
2022-12-26T01:45:00.312Z,39.30
2022-12-26T01:47:43.963Z,36.30
2022-12-26T01:50:22.480Z,37.90
2022-12-26T01:52:51.363Z,39.90
2022-12-26T01:55:22.294Z,42.60
2022-12-26T01:57:56.551Z,37.10
2022-12-26T02:00:23.977Z,41.40
2022-12-26T02:03:08.877Z,38.40
2022-12-26T02:05:36.602Z,40.00
2022-12-26T02:08:06.299Z,37.20
2022-12-26T02:10:36.987Z,36.60
2022-12-26T02:13:05.563Z,36.00
2022-12-26T02:15:33.803Z,40.40
2022-12-26T02:18:01.397Z,40.90
2022-12-26T02:20:34.753Z,38.20
2022-12-26T02:23:48.090Z,42.60
2022-12-26T02:27:00.197Z,41.70
2022-12-26T02:29:54.276Z,43.60
2022-12-26T02:32:26.641Z,45.30
2022-12-26T02:35:05.367Z,48.00
2022-12-26T02:37:50.816Z,45.00
2022-12-26T02:40:31.727Z,46.40
2022-12-26T02:43:05.012Z,47.70
2022-12-26T02:45:58.061Z,51.50
2022-12-26T02:48:40.922Z,52.30
2022-12-26T02:51:35.995Z,50.80
2022-12-26T02:54:31.461Z,54.30
2022-12-26T02:57:21.909Z,52.50
2022-12-26T03:00:25.613Z,49.10
2022-12-26T03:03:12.957Z,49.10
2022-12-26T03:06:02.511Z,53.30
2022-12-26T03:08:57.646Z,59.40
2022-12-26T03:11:45.463Z,53.10
2022-12-26T03:14:18.957Z,55.80
2022-12-26T03:17:08.865Z,58.50
2022-12-26T03:19:58.428Z,54.20
2022-12-26T03:22:35.914Z,54.10
2022-12-26T03:25:23.438Z,56.70
2022-12-26T03:27:50.891Z,56.00
2022-12-26T03:30:35.926Z,56.00
2022-12-26T03:33:03.109Z,54.00
2022-12-26T03:35:34.469Z,48.30
2022-12-26T03:38:07.795Z,47.80
2022-12-26T03:41:07.879Z,47.80
2022-12-26T03:44:06.055Z,44.00
2022-12-26T03:46:58.922Z,43.80
2022-12-26T03:49:47.150Z,47.50
2022-12-26T03:52:43.705Z,39.50
2022-12-26T03:55:34.091Z,41.30
2022-12-26T03:58:25.612Z,39.50
2022-12-26T04:01:14.725Z,36.70
2022-12-26T04:04:03.317Z,36.60
2022-12-26T04:06:52.529Z,34.60
2022-12-26T04:09:43.620Z,34.00
2022-12-26T04:12:37.037Z,37.00
2022-12-26T04:15:28.651Z,32.80
2022-12-26T04:18:19.153Z,34.40
2022-12-26T04:20:52.816Z,33.90
2022-12-26T04:23:41.571Z,32.50
2022-12-26T04:26:33.411Z,34.20
2022-12-26T04:29:18.240Z,32.70
2022-12-26T04:32:10.283Z,33.30
2022-12-26T04:35:03.901Z,31.50
2022-12-26T04:37:50.895Z,30.70
2022-12-26T04:40:41.645Z,29.70
2022-12-26T04:43:50.443Z,33.60
2022-12-26T04:46:16.550Z,32.20
2022-12-26T04:49:05.710Z,34.00
2022-12-26T04:51:33.985Z,28.50
2022-12-26T04:54:01.129Z,29.20
2022-12-26T04:56:28.371Z,30.10
2022-12-26T04:58:55.534Z,28.10
2022-12-26T05:01:40.466Z,33.70
2022-12-26T05:04:25.460Z,28.90
2022-12-26T05:07:10.121Z,26.40
2022-12-26T05:09:39.839Z,26.60
2022-12-26T05:12:09.573Z,27.40
2022-12-26T05:14:36.878Z,29.70
2022-12-26T05:17:21.867Z,28.90
2022-12-26T05:20:06.606Z,26.80
2022-12-26T05:22:53.261Z,26.80
2022-12-26T05:25:40.055Z,25.40
2022-12-26T05:28:27.515Z,25.30
2022-12-26T05:30:54.418Z,23.80
2022-12-26T05:33:39.580Z,25.30
2022-12-26T05:36:07.674Z,23.60
2022-12-26T05:38:35.419Z,24.50
2022-12-26T05:41:02.877Z,22.10
2022-12-26T05:43:30.330Z,24.50
2022-12-26T05:45:57.817Z,23.80
2022-12-26T05:48:24.960Z,21.20
2022-12-26T05:50:52.093Z,22.90
2022-12-26T05:53:19.450Z,20.80
2022-12-26T05:55:46.906Z,20.80
2022-12-26T05:58:13.957Z,20.80
2022-12-26T06:00:41.515Z,22.90
2022-12-26T06:03:08.595Z,20.80
2022-12-26T06:05:35.809Z,19.20
2022-12-26T06:08:02.765Z,19.40
2022-12-26T06:10:30.740Z,17.60
2022-12-26T06:12:58.189Z,20.60
2022-12-26T06:15:25.153Z,18.00
2022-12-26T06:17:52.184Z,17.50
2022-12-26T06:20:19.530Z,17.80
2022-12-26T06:22:47.091Z,18.40
2022-12-26T06:25:14.650Z,19.50
2022-12-26T06:27:43.821Z,16.90
2022-12-26T06:30:12.474Z,16.70
2022-12-26T06:32:39.644Z,21.00
2022-12-26T06:35:07.834Z,17.80
2022-12-26T06:37:35.570Z,14.40
2022-12-26T06:40:03.086Z,17.80
2022-12-26T06:42:32.631Z,18.40
2022-12-26T06:44:59.630Z,19.20
2022-12-26T06:47:26.755Z,17.00
2022-12-26T06:49:53.836Z,20.10
2022-12-26T06:52:21.499Z,18.80
2022-12-26T06:54:48.751Z,19.80
2022-12-26T06:57:15.928Z,19.90
2022-12-26T06:59:42.961Z,18.70
2022-12-26T07:02:12.652Z,18.50
2022-12-26T07:04:40.322Z,19.20
2022-12-26T07:07:07.475Z,17.10
2022-12-26T07:09:34.744Z,18.00
2022-12-26T07:12:02.187Z,19.60
2022-12-26T07:14:29.359Z,19.90
2022-12-26T07:16:56.511Z,18.90
2022-12-26T07:19:23.619Z,19.20
2022-12-26T07:21:51.190Z,20.40
2022-12-26T07:24:20.431Z,19.40
2022-12-26T07:26:48.986Z,21.50
2022-12-26T07:29:16.780Z,21.90
2022-12-26T07:31:44.182Z,22.40
2022-12-26T07:34:11.441Z,21.30
2022-12-26T07:36:38.558Z,20.60
2022-12-26T07:39:06.196Z,19.90
2022-12-26T07:41:50.584Z,19.20
2022-12-26T07:44:18.383Z,19.20
2022-12-26T07:46:46.845Z,20.10
2022-12-26T07:49:15.780Z,20.90
2022-12-26T07:51:44.149Z,19.50
2022-12-26T07:54:12.323Z,21.10
2022-12-26T07:56:39.751Z,17.40
2022-12-26T07:59:07.358Z,18.50
2022-12-26T08:01:34.707Z,17.60
2022-12-26T08:04:02.205Z,20.20
2022-12-26T08:06:29.493Z,20.00
2022-12-26T08:08:56.577Z,18.50
2022-12-26T08:11:25.493Z,19.90
2022-12-26T08:13:52.896Z,19.30
2022-12-26T08:16:20.720Z,20.30
2022-12-26T08:18:47.896Z,21.00
2022-12-26T08:21:15.604Z,20.10
2022-12-26T08:23:42.716Z,20.80
2022-12-26T08:26:12.584Z,22.20
2022-12-26T08:28:42.306Z,22.10
2022-12-26T08:31:11.440Z,20.50
2022-12-26T08:33:39.103Z,23.10
2022-12-26T08:36:08.427Z,18.70
2022-12-26T08:38:35.653Z,24.70
2022-12-26T08:41:03.130Z,20.70
2022-12-26T08:43:52.792Z,22.30
2022-12-26T08:46:18.272Z,21.90
2022-12-26T08:48:46.058Z,23.70
2022-12-26T08:51:16.541Z,22.40
2022-12-26T08:53:44.168Z,27.20
2022-12-26T08:56:14.747Z,25.30
2022-12-26T08:58:42.129Z,23.20
2022-12-26T09:01:15.040Z,21.20
2022-12-26T09:03:43.197Z,24.80
2022-12-26T09:06:11.414Z,22.80
2022-12-26T09:08:39.961Z,26.30
2022-12-26T09:11:11.366Z,24.50
2022-12-26T09:13:39.639Z,23.10
2022-12-26T09:16:12.681Z,25.80
2022-12-26T09:18:41.063Z,25.30
2022-12-26T09:21:10.525Z,22.10
2022-12-26T09:23:39.219Z,24.80
2022-12-26T09:26:11.919Z,27.90
2022-12-26T09:28:39.502Z,24.00
2022-12-26T09:31:08.872Z,25.30
2022-12-26T09:33:37.805Z,23.20
2022-12-26T09:36:14.588Z,27.50
2022-12-26T09:38:43.246Z,27.90
2022-12-26T09:41:30.202Z,23.50
2022-12-26T09:44:07.136Z,24.40
2022-12-26T09:46:41.344Z,26.30
2022-12-26T09:49:15.087Z,28.60
2022-12-26T09:51:46.193Z,25.60
2022-12-26T09:54:26.609Z,27.90
2022-12-26T09:57:02.925Z,26.90
2022-12-26T09:59:32.423Z,27.60
2022-12-26T10:01:59.906Z,27.70
2022-12-26T10:04:30.934Z,28.80
2022-12-26T10:07:08.414Z,28.90
2022-12-26T10:10:10.526Z,27.00
2022-12-26T10:12:49.001Z,29.80
2022-12-26T10:15:34.338Z,29.70
2022-12-26T10:18:19.965Z,27.50
2022-12-26T10:21:11.278Z,27.80
2022-12-26T10:23:41.294Z,27.20
2022-12-26T10:26:15.404Z,28.50
2022-12-26T10:28:48.118Z,27.80
2022-12-26T10:31:20.535Z,31.60
2022-12-26T10:33:53.896Z,29.80
2022-12-26T10:36:32.550Z,28.60
2022-12-26T10:39:02.621Z,29.20
2022-12-26T10:41:33.756Z,28.20
2022-12-26T10:44:01.212Z,29.10
2022-12-26T10:47:07.004Z,29.20
2022-12-26T10:49:34.543Z,28.20
2022-12-26T10:52:04.241Z,29.60
2022-12-26T10:54:32.809Z,29.60
2022-12-26T10:57:02.373Z,27.50
2022-12-26T10:59:41.530Z,29.80
2022-12-26T11:02:26.867Z,30.30
2022-12-26T11:05:27.457Z,28.30
2022-12-26T11:08:10.868Z,25.80
2022-12-26T11:10:39.024Z,26.80
2022-12-26T11:13:10.029Z,27.60
2022-12-26T11:15:39.910Z,27.90
2022-12-26T11:18:19.241Z,24.20
2022-12-26T11:20:48.104Z,26.20
2022-12-26T11:23:28.412Z,25.30
2022-12-26T11:25:57.049Z,24.90
2022-12-26T11:28:34.493Z,22.10
2022-12-26T11:31:02.771Z,21.50
2022-12-26T11:33:32.626Z,26.20
2022-12-26T11:36:09.637Z,20.60
2022-12-26T11:38:48.887Z,22.30
2022-12-26T11:41:36.988Z,19.50
2022-12-26T11:44:14.328Z,18.60
2022-12-26T11:46:44.042Z,19.20
2022-12-26T11:49:24.490Z,18.40
2022-12-26T11:51:59.275Z,21.00
2022-12-26T11:54:33.122Z,20.10
2022-12-26T11:57:11.864Z,19.30
2022-12-26T11:59:39.632Z,20.80
2022-12-26T12:02:27.902Z,19.90
2022-12-26T12:04:59.921Z,17.10
2022-12-26T12:07:58.045Z,17.20
2022-12-26T12:13:22.665Z,18.60
2022-12-26T12:15:58.660Z,16.50
2022-12-26T12:18:41.071Z,18.60
2022-12-26T12:21:19.291Z,20.20
2022-12-26T12:24:10.032Z,18.50
2022-12-26T12:26:52.989Z,19.30
2022-12-26T12:29:34.848Z,16.60
2022-12-26T12:32:14.524Z,17.30
2022-12-26T12:35:05.051Z,18.20
2022-12-26T12:37:51.200Z,22.50
2022-12-26T12:40:30.990Z,18.20
2022-12-26T12:43:08.524Z,18.20
2022-12-26T12:45:42.231Z,21.30
2022-12-26T12:48:41.844Z,19.10
2022-12-26T12:51:20.451Z,18.50
2022-12-26T12:54:28.149Z,18.20
2022-12-26T12:57:07.275Z,18.20
2022-12-26T12:59:45.215Z,17.90
2022-12-26T13:02:21.876Z,17.20
2022-12-26T13:04:56.157Z,19.90
2022-12-26T13:07:31.946Z,17.60
2022-12-26T13:10:03.081Z,16.70
2022-12-26T13:12:35.193Z,17.20
2022-12-26T13:15:08.339Z,17.90
2022-12-26T13:17:41.241Z,16.00
2022-12-26T13:20:17.892Z,18.50
2022-12-26T13:23:03.446Z,18.00
2022-12-26T13:25:37.156Z,16.60
2022-12-26T13:28:11.653Z,19.10
2022-12-26T13:30:39.748Z,16.30
2022-12-26T13:33:07.940Z,17.60
2022-12-26T13:35:54.032Z,17.10
2022-12-26T13:38:22.208Z,17.50
2022-12-26T13:40:53.967Z,18.70
2022-12-26T13:43:41.768Z,17.00
2022-12-26T13:46:38.642Z,15.70
2022-12-26T13:49:06.832Z,15.30
2022-12-26T13:51:47.566Z,18.80
2022-12-26T13:54:17.582Z,17.60
2022-12-26T13:57:21.301Z,17.70
2022-12-26T13:59:59.425Z,17.00
2022-12-26T14:03:19.720Z,16.20
2022-12-26T14:06:08.899Z,15.80
2022-12-26T14:08:48.561Z,15.30
2022-12-26T14:11:38.296Z,17.30
2022-12-26T14:14:19.205Z,18.20
2022-12-26T14:16:54.180Z,18.80
2022-12-26T14:19:38.646Z,14.60
2022-12-26T14:22:13.101Z,18.90
2022-12-26T14:24:48.130Z,18.30
2022-12-26T14:27:30.454Z,17.00
2022-12-26T14:30:18.687Z,15.60
2022-12-26T14:32:58.182Z,16.30
2022-12-26T14:35:35.043Z,15.70
2022-12-26T14:38:15.049Z,15.90
2022-12-26T14:41:01.296Z,16.20
2022-12-26T14:43:36.359Z,22.50
2022-12-26T14:46:05.950Z,17.90
2022-12-26T14:48:59.926Z,19.50
2022-12-26T14:51:43.437Z,18.90
2022-12-26T14:54:50.753Z,18.10
2022-12-26T14:57:48.858Z,15.50
2022-12-26T15:00:35.140Z,16.30
2022-12-26T15:03:50.464Z,17.10
2022-12-26T15:07:00.114Z,16.80
2022-12-26T15:09:55.661Z,15.20
2022-12-26T15:12:58.956Z,20.20
2022-12-26T15:15:34.022Z,16.40
2022-12-26T15:18:24.639Z,15.70
2022-12-26T15:21:22.702Z,17.20
2022-12-26T15:24:16.608Z,15.20
2022-12-26T15:27:15.995Z,19.80
2022-12-26T15:30:07.359Z,18.20
2022-12-26T15:32:41.615Z,21.70
2022-12-26T15:35:23.231Z,18.10
2022-12-26T15:38:09.005Z,16.40
2022-12-26T15:40:43.819Z,17.20
2022-12-26T15:43:29.603Z,18.40
2022-12-26T15:46:04.572Z,18.30
2022-12-26T15:48:46.188Z,15.30
2022-12-26T15:51:17.116Z,16.00
2022-12-26T15:54:00.606Z,13.60
2022-12-26T15:56:51.619Z,14.70
2022-12-26T15:59:48.051Z,14.80
2022-12-26T16:02:33.508Z,15.10
2022-12-26T16:05:10.056Z,15.20
2022-12-26T16:07:44.357Z,15.60
2022-12-26T16:10:29.720Z,16.40
2022-12-26T16:13:05.109Z,16.00
2022-12-26T16:15:33.405Z,15.70
2022-12-26T16:18:18.098Z,14.60
2022-12-26T16:21:05.666Z,15.90
2022-12-26T16:23:40.791Z,15.70
2022-12-26T16:26:08.334Z,15.50
2022-12-26T16:28:38.711Z,14.60
2022-12-26T16:31:07.748Z,17.30
2022-12-26T16:33:41.557Z,19.70
2022-12-26T16:36:11.365Z,18.50
2022-12-26T16:38:39.425Z,21.20
2022-12-26T16:41:19.434Z,18.60
2022-12-26T16:43:46.582Z,18.80
2022-12-26T16:46:14.962Z,17.90
2022-12-26T16:48:44.353Z,16.00
2022-12-26T16:51:34.243Z,18.70
2022-12-26T16:54:18.044Z,19.50
2022-12-26T16:56:49.022Z,18.20
2022-12-26T16:59:19.113Z,17.90
2022-12-26T17:01:51.224Z,17.60
2022-12-26T17:04:23.554Z,16.60
2022-12-26T17:06:52.820Z,17.00
2022-12-26T17:09:20.714Z,18.50
2022-12-26T17:11:54.975Z,16.40
2022-12-26T17:14:25.707Z,16.20
2022-12-26T17:16:59.839Z,15.40
2022-12-26T17:19:31.799Z,16.60
2022-12-26T17:22:34.613Z,16.00
2022-12-26T17:25:24.751Z,16.90
2022-12-26T17:28:24.889Z,14.80
2022-12-26T17:30:54.454Z,15.70
2022-12-26T17:33:23.898Z,16.50
2022-12-26T17:38:41.605Z,20.50
2022-12-26T17:41:10.564Z,13.20
2022-12-26T17:43:39.287Z,10.30
2022-12-26T17:46:09.528Z,12.20
2022-12-26T17:48:37.335Z,13.20
2022-12-26T17:51:07.100Z,13.80
2022-12-26T17:53:36.588Z,14.80
2022-12-26T17:56:06.513Z,13.00
2022-12-26T17:58:34.459Z,13.60
2022-12-26T18:01:02.149Z,15.00
2022-12-26T18:03:29.606Z,16.10
2022-12-26T18:05:57.791Z,14.90
2022-12-26T18:08:32.606Z,14.90
2022-12-26T18:11:00.013Z,19.70
2022-12-26T18:13:27.175Z,17.80
2022-12-26T18:15:56.370Z,17.60
2022-12-26T18:18:28.322Z,18.30
2022-12-26T18:20:56.525Z,16.90
2022-12-26T18:23:24.372Z,16.80
2022-12-26T18:25:54.669Z,18.50
2022-12-26T18:28:22.409Z,14.90
2022-12-26T18:30:50.213Z,17.30
2022-12-26T18:33:19.134Z,17.40
2022-12-26T18:35:50.214Z,16.50
2022-12-26T18:38:19.824Z,18.10
2022-12-26T18:40:49.613Z,18.70
2022-12-26T18:43:17.551Z,18.60
2022-12-26T18:45:44.932Z,16.90
2022-12-26T18:48:17.753Z,15.50
2022-12-26T18:50:46.137Z,16.70
2022-12-26T18:53:13.239Z,16.20
2022-12-26T18:55:41.293Z,15.40
2022-12-26T18:58:09.382Z,15.40
2022-12-26T19:00:38.256Z,16.30
2022-12-26T19:03:05.802Z,16.30
2022-12-26T19:05:34.630Z,14.00
2022-12-26T19:08:03.123Z,13.80
2022-12-26T19:10:32.958Z,16.00
2022-12-26T19:13:05.730Z,16.10
2022-12-26T19:15:34.172Z,15.20
2022-12-26T19:18:01.500Z,12.20
2022-12-26T19:20:29.086Z,12.00
2022-12-26T19:22:57.689Z,13.50
2022-12-26T19:25:26.617Z,14.20
2022-12-26T19:27:54.882Z,15.10
2022-12-26T19:30:23.409Z,12.50
2022-12-26T19:32:50.894Z,13.30
2022-12-26T19:35:18.456Z,14.80
2022-12-26T19:37:47.885Z,12.50
2022-12-26T19:40:22.903Z,14.50
2022-12-26T19:42:52.136Z,14.80
2022-12-26T19:45:19.859Z,13.80
2022-12-26T19:47:47.029Z,14.70
2022-12-26T19:50:15.168Z,13.10
2022-12-26T19:52:42.234Z,15.60
2022-12-26T19:55:12.290Z,15.40
2022-12-26T19:57:39.301Z,15.30
2022-12-26T20:00:11.805Z,13.90
2022-12-26T20:02:42.460Z,11.50
2022-12-26T20:05:12.012Z,13.30
2022-12-26T20:07:39.195Z,13.80
2022-12-26T20:10:07.497Z,14.10
2022-12-26T20:12:35.424Z,14.50
2022-12-26T20:15:02.480Z,16.00
2022-12-26T20:17:31.240Z,17.50
2022-12-26T20:19:58.354Z,14.60
2022-12-26T20:22:25.453Z,15.40
2022-12-26T20:24:52.746Z,14.70
2022-12-26T20:27:20.492Z,12.30
2022-12-26T20:29:47.578Z,12.80
2022-12-26T20:32:14.620Z,13.50
2022-12-26T20:34:41.799Z,13.00
2022-12-26T20:37:10.181Z,11.60
2022-12-26T20:39:37.541Z,13.10
2022-12-26T20:42:06.368Z,12.90
2022-12-26T20:44:33.583Z,13.60
2022-12-26T20:47:00.770Z,12.50
2022-12-26T20:49:29.224Z,12.80
2022-12-26T20:51:56.413Z,14.30
2022-12-26T20:54:24.861Z,12.10
2022-12-26T20:56:51.979Z,14.50
2022-12-26T20:59:19.417Z,13.70
2022-12-26T21:01:47.085Z,16.20
2022-12-26T21:04:19.984Z,15.10
2022-12-26T21:06:48.048Z,12.50
2022-12-26T21:09:15.324Z,12.90
2022-12-26T21:11:45.606Z,15.30
2022-12-26T21:14:15.479Z,19.60
2022-12-26T21:16:44.570Z,13.40
2022-12-26T21:19:15.735Z,14.20
2022-12-26T21:21:45.431Z,16.00
2022-12-26T21:24:16.382Z,14.00
2022-12-26T21:26:44.674Z,13.60
2022-12-26T21:29:14.740Z,13.50
2022-12-26T21:31:42.936Z,12.80
2022-12-26T21:34:10.050Z,12.90
2022-12-26T21:36:39.284Z,15.80
2022-12-26T21:39:11.259Z,14.10
2022-12-26T21:41:39.376Z,12.90
2022-12-26T21:44:06.714Z,13.10
2022-12-26T21:46:34.618Z,14.20
2022-12-26T21:49:01.669Z,13.10
2022-12-26T21:51:28.930Z,16.00
2022-12-26T21:54:16.398Z,15.50
2022-12-26T21:59:32.886Z,13.70
2022-12-26T22:01:59.943Z,12.70
2022-12-26T22:04:28.657Z,11.30
2022-12-26T22:06:56.125Z,13.40
2022-12-26T22:09:26.900Z,12.50
2022-12-26T22:12:14.612Z,12.90
2022-12-26T22:14:42.651Z,13.20
2022-12-26T22:17:11.091Z,12.10
2022-12-26T22:19:38.860Z,14.30
2022-12-26T22:22:06.820Z,11.20
2022-12-26T22:24:34.503Z,12.40
2022-12-26T22:27:01.564Z,13.10
2022-12-26T22:29:28.655Z,11.50
2022-12-26T22:31:58.499Z,10.20
2022-12-26T22:34:27.517Z,12.40
2022-12-26T22:36:56.338Z,13.90
2022-12-26T22:39:23.420Z,12.20
2022-12-26T22:41:50.535Z,13.50
2022-12-26T22:44:18.683Z,12.50
2022-12-26T22:46:45.747Z,13.70
2022-12-26T22:49:13.687Z,11.90
2022-12-26T22:51:40.687Z,13.50
2022-12-26T22:54:08.160Z,12.00
2022-12-26T22:56:36.167Z,12.60
2022-12-26T22:59:03.581Z,12.20
2022-12-26T23:01:31.412Z,11.30
2022-12-26T23:03:58.968Z,13.40
2022-12-26T23:06:29.231Z,10.90
2022-12-26T23:08:59.144Z,13.80
2022-12-26T23:11:34.715Z,11.50
2022-12-26T23:14:03.467Z,13.80
2022-12-26T23:16:35.343Z,13.00
2022-12-26T23:19:23.590Z,15.00
2022-12-26T23:21:51.474Z,13.20
2022-12-26T23:24:21.982Z,12.80
2022-12-26T23:26:52.068Z,13.80
2022-12-26T23:29:39.684Z,13.30
2022-12-26T23:32:08.724Z,13.90
2022-12-26T23:34:36.174Z,16.00
2022-12-26T23:37:03.617Z,14.20
2022-12-26T23:39:30.684Z,15.70
2022-12-26T23:41:57.706Z,15.60
2022-12-26T23:44:24.701Z,17.40
2022-12-26T23:46:51.828Z,16.80
2022-12-26T23:49:18.972Z,15.50
2022-12-26T23:51:46.062Z,14.50
2022-12-26T23:54:13.369Z,17.70
2022-12-26T23:56:40.548Z,17.00
2022-12-26T23:59:08.082Z,16.90
